createdAt,value
2024-03-02T00:00:32.053Z,53.16
2024-03-02T00:01:32.154Z,55.86
2024-03-02T00:02:31.986Z,54.38
2024-03-02T00:03:31.973Z,55.94
2024-03-02T00:04:31.980Z,55.19
2024-03-02T00:05:31.961Z,56.10
2024-03-02T00:06:31.971Z,50.09
2024-03-02T00:07:31.949Z,53.86
2024-03-02T00:08:31.948Z,57.46
2024-03-02T00:09:31.965Z,50.72
2024-03-02T00:10:31.925Z,57.39
2024-03-02T00:11:32.005Z,55.30
2024-03-02T00:12:31.930Z,54.80
2024-03-02T00:13:31.905Z,53.87
2024-03-02T00:14:31.936Z,54.53
2024-03-02T00:15:31.902Z,52.95
2024-03-02T00:16:31.926Z,55.60
2024-03-02T00:17:31.893Z,52.21
2024-03-02T00:18:31.931Z,50.57
2024-03-02T00:19:31.864Z,54.95
2024-03-02T00:20:31.868Z,53.47
2024-03-02T00:21:31.880Z,55.76
2024-03-02T00:22:31.854Z,52.54
2024-03-02T00:23:31.868Z,53.28
2024-03-02T00:24:31.856Z,57.36
2024-03-02T00:25:31.856Z,54.09
2024-03-02T00:26:31.824Z,55.19
2024-03-02T00:27:31.842Z,56.08
2024-03-02T00:28:31.824Z,55.94
2024-03-02T00:29:31.799Z,54.69
2024-03-02T00:30:31.817Z,55.56
2024-03-02T00:31:31.816Z,55.98
2024-03-02T00:32:31.805Z,54.90
2024-03-02T00:33:31.804Z,54.35
2024-03-02T00:34:31.786Z,52.05
2024-03-02T00:35:31.760Z,51.34
2024-03-02T00:36:31.761Z,52.06
2024-03-02T00:37:31.752Z,51.40
2024-03-02T00:38:31.743Z,54.70
2024-03-02T00:39:31.743Z,51.15
2024-03-02T00:40:31.734Z,52.54
2024-03-02T00:41:31.764Z,51.13
2024-03-02T00:42:31.745Z,53.62
2024-03-02T00:43:31.720Z,53.08
2024-03-02T00:44:31.705Z,56.65
2024-03-02T00:45:31.726Z,50.73
2024-03-02T00:46:31.696Z,52.70
2024-03-02T00:47:31.693Z,52.59
2024-03-02T00:48:31.739Z,55.94
2024-03-02T00:49:31.659Z,50.80
2024-03-02T00:50:31.666Z,55.76
2024-03-02T00:51:31.741Z,54.79
2024-03-02T00:52:31.648Z,55.17
2024-03-02T00:53:31.629Z,52.33
2024-03-02T00:54:31.649Z,54.24
2024-03-02T00:55:31.629Z,52.46
2024-03-02T00:56:31.607Z,53.80
2024-03-02T00:57:31.721Z,51.58
2024-03-02T00:58:31.599Z,50.61
2024-03-02T00:59:31.596Z,54.09
2024-03-02T01:00:31.639Z,51.53
2024-03-02T01:01:31.635Z,50.25
2024-03-02T01:02:31.581Z,52.28
2024-03-02T01:03:31.665Z,50.35
2024-03-02T01:04:31.629Z,49.82
2024-03-02T01:05:31.576Z,54.90
2024-03-02T01:06:31.648Z,51.43
2024-03-02T01:07:31.540Z,53.24
2024-03-02T01:08:31.653Z,53.95
2024-03-02T01:09:31.567Z,49.85
2024-03-02T01:10:31.524Z,56.28
2024-03-02T01:11:31.518Z,51.79
2024-03-02T01:12:31.540Z,49.69
2024-03-02T01:13:31.531Z,51.85
2024-03-02T01:14:31.501Z,50.46
2024-03-02T01:15:31.508Z,49.83
2024-03-02T01:16:31.476Z,53.69
2024-03-02T01:17:31.486Z,48.65
2024-03-02T01:18:31.497Z,49.76
2024-03-02T01:19:31.504Z,55.29
2024-03-02T01:20:31.478Z,50.04
2024-03-02T01:21:31.470Z,51.59
2024-03-02T01:22:31.461Z,58.01
2024-03-02T01:23:31.441Z,56.69
2024-03-02T01:24:31.474Z,50.66
2024-03-02T01:25:31.439Z,51.69
2024-03-02T01:26:31.489Z,55.88
2024-03-02T01:27:31.420Z,53.36
2024-03-02T01:28:31.418Z,51.77
2024-03-02T01:29:31.438Z,52.92
2024-03-02T01:30:31.433Z,48.04
2024-03-02T01:31:31.400Z,50.40
2024-03-02T01:32:31.388Z,49.92
2024-03-02T01:33:31.401Z,50.27
2024-03-02T01:34:31.374Z,49.00
2024-03-02T01:35:31.354Z,50.50
2024-03-02T01:36:31.647Z,51.06
2024-03-02T01:37:31.346Z,54.23
2024-03-02T01:38:31.334Z,50.72
2024-03-02T01:39:31.422Z,51.17
2024-03-02T01:40:31.338Z,53.22
2024-03-02T01:41:31.327Z,49.11
2024-03-02T01:42:31.577Z,53.04
2024-03-02T01:43:31.311Z,54.89
2024-03-02T01:44:31.346Z,52.32
2024-03-02T01:45:31.325Z,57.06
2024-03-02T01:46:31.281Z,52.24
2024-03-02T01:47:31.311Z,55.67
2024-03-02T01:48:31.318Z,55.73
2024-03-02T01:49:31.253Z,55.71
2024-03-02T01:50:31.273Z,48.76
2024-03-02T01:51:31.287Z,48.80
2024-03-02T01:52:31.260Z,52.02
2024-03-02T01:53:32.233Z,49.12
2024-03-02T01:54:31.291Z,49.45
2024-03-02T01:55:31.368Z,53.33
2024-03-02T01:56:31.219Z,50.39
2024-03-02T01:57:31.246Z,50.97
2024-03-02T01:58:31.222Z,51.16
2024-03-02T01:59:31.291Z,54.58
2024-03-02T02:00:31.233Z,49.15
2024-03-02T02:01:31.218Z,48.40
2024-03-02T02:02:31.180Z,52.37
2024-03-02T02:03:31.222Z,53.01
2024-03-02T02:04:31.243Z,50.62
2024-03-02T02:05:31.153Z,52.12
2024-03-02T02:06:31.175Z,53.98
2024-03-02T02:07:31.138Z,50.51
2024-03-02T02:08:31.131Z,53.51
2024-03-02T02:09:31.173Z,53.06
2024-03-02T02:10:31.131Z,50.71
2024-03-02T02:11:31.148Z,55.09
2024-03-02T02:12:31.127Z,55.05
2024-03-02T02:13:31.101Z,54.72
2024-03-02T02:14:31.102Z,51.12
2024-03-02T02:15:31.232Z,47.59
2024-03-02T02:16:31.089Z,49.79
2024-03-02T02:17:31.086Z,53.92
2024-03-02T02:18:31.076Z,52.12
2024-03-02T02:19:31.071Z,59.18
2024-03-02T02:20:31.068Z,54.33
2024-03-02T02:21:31.104Z,52.73
2024-03-02T02:22:31.046Z,48.32
2024-03-02T02:23:31.043Z,51.15
2024-03-02T02:24:31.036Z,50.13
2024-03-02T02:25:31.154Z,51.40
2024-03-02T02:26:31.015Z,54.43
2024-03-02T02:27:31.049Z,54.96
2024-03-02T02:28:31.002Z,50.73
2024-03-02T02:29:30.999Z,47.64
2024-03-02T02:30:31.083Z,57.14
2024-03-02T02:31:30.986Z,51.59
2024-03-02T02:32:30.986Z,50.32
2024-03-02T02:33:30.991Z,53.75
2024-03-02T02:34:30.970Z,53.74
2024-03-02T02:35:30.974Z,52.70
2024-03-02T02:36:30.981Z,49.54
2024-03-02T02:37:30.934Z,47.21
2024-03-02T02:38:30.954Z,49.55
2024-03-02T02:39:30.976Z,53.41
2024-03-02T02:40:30.923Z,48.22
2024-03-02T02:41:30.946Z,49.43
2024-03-02T02:42:30.994Z,48.73
2024-03-02T02:43:30.905Z,52.90
2024-03-02T02:44:30.920Z,48.31
2024-03-02T02:45:30.972Z,49.54
2024-03-02T02:46:30.894Z,53.41
2024-03-02T02:47:30.925Z,56.65
2024-03-02T02:48:30.909Z,56.61
2024-03-02T02:49:30.861Z,53.01
2024-03-02T02:50:30.867Z,51.52
2024-03-02T02:51:30.895Z,50.26
2024-03-02T02:52:30.841Z,48.36
2024-03-02T02:53:30.867Z,50.18
2024-03-02T02:54:30.858Z,50.94
2024-03-02T02:55:30.882Z,52.95
2024-03-02T02:56:30.828Z,47.97
2024-03-02T02:57:30.874Z,50.07
2024-03-02T02:58:30.797Z,54.93
2024-03-02T02:59:30.805Z,52.41
2024-03-02T03:00:30.981Z,53.74
2024-03-02T03:01:30.944Z,58.91
2024-03-02T03:02:30.805Z,55.55
2024-03-02T03:03:30.820Z,50.19
2024-03-02T03:04:30.760Z,53.00
2024-03-02T03:05:30.763Z,54.23
2024-03-02T03:06:30.780Z,53.26
2024-03-02T03:07:30.744Z,47.45
2024-03-02T03:08:30.748Z,50.86
2024-03-02T03:09:30.769Z,55.15
2024-03-02T03:10:30.720Z,51.43
2024-03-02T03:11:30.789Z,52.96
2024-03-02T03:12:30.745Z,52.35
2024-03-02T03:13:30.707Z,50.55
2024-03-02T03:14:30.698Z,51.75
2024-03-02T03:15:30.731Z,51.90
2024-03-02T03:16:30.733Z,51.38
2024-03-02T03:17:30.713Z,52.86
2024-03-02T03:18:30.717Z,52.63
2024-03-02T03:19:30.674Z,53.14
2024-03-02T03:20:30.660Z,49.02
2024-03-02T03:21:30.682Z,50.36
2024-03-02T03:22:31.249Z,52.43
2024-03-02T03:23:30.641Z,54.48
2024-03-02T03:24:32.265Z,50.79
2024-03-02T03:25:30.630Z,51.90
2024-03-02T03:26:30.628Z,52.87
2024-03-02T03:27:30.645Z,52.29
2024-03-02T03:28:30.624Z,55.44
2024-03-02T03:29:30.611Z,51.52
2024-03-02T03:30:30.608Z,51.98
2024-03-02T03:31:30.594Z,52.03
2024-03-02T03:32:30.572Z,50.80
2024-03-02T03:33:30.612Z,53.55
2024-03-02T03:34:30.600Z,50.80
2024-03-02T03:35:30.580Z,52.29
2024-03-02T03:36:30.561Z,51.46
2024-03-02T03:37:30.553Z,55.11
2024-03-02T03:38:30.568Z,51.22
2024-03-02T03:39:30.553Z,52.57
2024-03-02T03:40:31.531Z,53.63
2024-03-02T03:41:30.528Z,55.51
2024-03-02T03:42:30.518Z,55.13
2024-03-02T03:43:30.528Z,55.73
2024-03-02T03:44:30.501Z,55.82
2024-03-02T03:45:30.552Z,53.03
2024-03-02T03:46:30.486Z,51.64
2024-03-02T03:47:30.503Z,55.26
2024-03-02T03:48:30.506Z,55.56
2024-03-02T03:49:30.499Z,55.39
2024-03-02T03:50:30.465Z,55.58
2024-03-02T03:51:30.466Z,54.49
2024-03-02T03:52:30.460Z,54.31
2024-03-02T03:53:30.462Z,54.42
2024-03-02T03:54:30.489Z,51.02
2024-03-02T03:55:30.459Z,53.89
2024-03-02T03:56:30.419Z,55.38
2024-03-02T03:57:30.438Z,48.48
2024-03-02T03:58:30.428Z,50.02
2024-03-02T03:59:30.432Z,54.28
2024-03-02T04:00:30.413Z,56.23
2024-03-02T04:01:30.433Z,48.98
2024-03-02T04:02:30.391Z,53.31
2024-03-02T04:03:30.388Z,52.87
2024-03-02T04:04:30.358Z,52.21
2024-03-02T04:05:30.418Z,50.93
2024-03-02T04:06:30.359Z,53.97
2024-03-02T04:07:30.341Z,50.60
2024-03-02T04:08:30.355Z,50.25
2024-03-02T04:09:30.353Z,50.56
2024-03-02T04:10:30.341Z,53.15
2024-03-02T04:11:31.358Z,54.13
2024-03-02T04:12:30.340Z,57.19
2024-03-02T04:13:30.317Z,55.98
2024-03-02T04:14:30.310Z,58.24
2024-03-02T04:15:30.315Z,59.63
2024-03-02T04:16:30.288Z,57.14
2024-03-02T04:17:30.304Z,56.46
2024-03-02T04:18:30.280Z,56.27
2024-03-02T04:19:30.314Z,51.84
2024-03-02T04:20:30.368Z,55.43
2024-03-02T04:21:30.311Z,54.34
2024-03-02T04:22:30.282Z,54.32
2024-03-02T04:23:30.237Z,55.59
2024-03-02T04:24:30.288Z,53.21
2024-03-02T04:25:30.238Z,55.57
2024-03-02T04:26:30.231Z,57.78
2024-03-02T04:27:30.250Z,54.45
2024-03-02T04:28:30.207Z,53.69
2024-03-02T04:29:30.204Z,56.39
2024-03-02T04:30:30.223Z,56.50
2024-03-02T04:31:30.203Z,57.81
2024-03-02T04:32:30.519Z,53.11
2024-03-02T04:33:30.255Z,52.91
2024-03-02T04:34:30.871Z,60.46
2024-03-02T04:35:30.173Z,58.24
2024-03-02T04:36:30.205Z,55.85
2024-03-02T04:37:30.198Z,56.95
2024-03-02T04:38:30.144Z,56.47
2024-03-02T04:39:30.430Z,56.85
2024-03-02T04:40:30.151Z,55.07
2024-03-02T04:41:30.128Z,58.21
2024-03-02T04:42:30.256Z,58.02
2024-03-02T04:43:30.128Z,58.27
2024-03-02T04:44:30.160Z,60.61
2024-03-02T04:45:30.221Z,56.92
2024-03-02T04:46:30.098Z,57.16
2024-03-02T04:47:30.101Z,55.24
2024-03-02T04:48:30.191Z,56.65
2024-03-02T04:49:30.216Z,54.70
2024-03-02T04:50:30.079Z,53.25
2024-03-02T04:51:30.142Z,56.94
2024-03-02T04:52:30.079Z,55.99
2024-03-02T04:53:30.030Z,54.10
2024-03-02T04:54:30.095Z,56.94
2024-03-02T04:55:30.034Z,56.93
2024-03-02T04:56:30.012Z,55.44
2024-03-02T04:57:30.043Z,53.91
2024-03-02T04:58:30.039Z,53.69
2024-03-02T04:59:30.665Z,54.69
2024-03-02T05:00:30.086Z,56.15
2024-03-02T05:01:30.085Z,57.35
2024-03-02T05:02:29.971Z,57.53
2024-03-02T05:03:30.003Z,56.37
2024-03-02T05:04:29.970Z,59.99
2024-03-02T05:05:29.972Z,57.96
2024-03-02T05:06:29.948Z,59.69
2024-03-02T05:07:29.962Z,55.22
2024-03-02T05:08:29.943Z,54.37
2024-03-02T05:09:29.974Z,56.76
2024-03-02T05:10:29.912Z,55.00
2024-03-02T05:11:29.930Z,54.89
2024-03-02T05:12:29.978Z,56.82
2024-03-02T05:13:29.966Z,56.01
2024-03-02T05:14:29.921Z,55.88
2024-03-02T05:15:29.987Z,56.53
2024-03-02T05:16:29.870Z,58.24
2024-03-02T05:17:29.923Z,54.85
2024-03-02T05:18:29.884Z,57.40
2024-03-02T05:19:29.865Z,56.78
2024-03-02T05:20:29.852Z,55.91
2024-03-02T05:21:29.861Z,57.59
2024-03-02T05:22:29.842Z,58.09
2024-03-02T05:23:29.822Z,54.79
2024-03-02T05:24:29.856Z,59.19
2024-03-02T05:25:29.816Z,58.70
2024-03-02T05:26:29.816Z,60.36
2024-03-02T05:27:29.844Z,60.24
2024-03-02T05:28:29.811Z,56.66
2024-03-02T05:29:29.797Z,56.84
2024-03-02T05:30:29.816Z,57.82
2024-03-02T05:31:29.780Z,57.66
2024-03-02T05:32:29.785Z,61.66
2024-03-02T05:33:29.911Z,59.82
2024-03-02T05:34:29.880Z,60.94
2024-03-02T05:35:29.750Z,57.74
2024-03-02T05:36:29.756Z,59.47
2024-03-02T05:37:29.736Z,59.98
2024-03-02T05:38:29.725Z,60.60
2024-03-02T05:39:30.881Z,60.48
2024-03-02T05:40:29.707Z,59.16
2024-03-02T05:41:29.703Z,61.28
2024-03-02T05:42:29.781Z,59.45
2024-03-02T05:43:29.719Z,58.74
2024-03-02T05:44:29.719Z,58.34
2024-03-02T05:45:30.785Z,59.60
2024-03-02T05:46:29.677Z,57.76
2024-03-02T05:47:29.711Z,58.25
2024-03-02T05:48:29.693Z,59.14
2024-03-02T05:49:29.661Z,60.13
2024-03-02T05:50:29.655Z,59.22
2024-03-02T05:51:29.653Z,59.19
2024-03-02T05:52:29.680Z,58.86
2024-03-02T05:53:29.642Z,60.61
2024-03-02T05:54:29.730Z,57.40
2024-03-02T05:55:29.614Z,59.71
2024-03-02T05:56:29.609Z,59.43
2024-03-02T05:57:29.646Z,59.31
2024-03-02T05:58:30.261Z,58.52
2024-03-02T05:59:29.592Z,59.52
2024-03-02T06:00:29.703Z,56.65
2024-03-02T06:01:29.856Z,58.64
2024-03-02T06:02:29.570Z,59.13
2024-03-02T06:03:29.743Z,59.61
2024-03-02T06:04:29.577Z,57.09
2024-03-02T06:05:29.554Z,56.55
2024-03-02T06:06:29.612Z,61.61
2024-03-02T06:07:29.581Z,59.57
2024-03-02T06:08:29.561Z,60.79
2024-03-02T06:09:29.572Z,59.90
2024-03-02T06:10:29.515Z,58.44
2024-03-02T06:11:29.594Z,59.56
2024-03-02T06:12:29.524Z,55.79
2024-03-02T06:13:29.494Z,55.90
2024-03-02T06:14:29.533Z,55.78
2024-03-02T06:15:29.563Z,58.30
2024-03-02T06:16:29.471Z,59.45
2024-03-02T06:17:29.543Z,61.65
2024-03-02T06:18:29.635Z,58.23
2024-03-02T06:19:29.475Z,56.91
2024-03-02T06:20:31.092Z,60.40
2024-03-02T06:21:29.500Z,57.17
2024-03-02T06:22:29.441Z,59.44
2024-03-02T06:23:29.456Z,61.38
2024-03-02T06:24:29.436Z,59.00
2024-03-02T06:25:29.484Z,60.50
2024-03-02T06:26:29.424Z,59.96
2024-03-02T06:27:29.455Z,58.41
2024-03-02T06:28:29.418Z,57.82
2024-03-02T06:29:29.402Z,56.98
2024-03-02T06:30:29.435Z,58.97
2024-03-02T06:31:29.416Z,60.42
2024-03-02T06:32:29.407Z,59.15
2024-03-02T06:33:29.429Z,60.64
2024-03-02T06:34:29.360Z,61.76
2024-03-02T06:35:29.370Z,61.69
2024-03-02T06:36:29.532Z,60.98
2024-03-02T06:37:29.350Z,60.94
2024-03-02T06:38:29.329Z,60.87
2024-03-02T06:39:30.279Z,60.69
2024-03-02T06:40:29.310Z,61.62
2024-03-02T06:41:29.326Z,62.68
2024-03-02T06:42:29.323Z,60.50
2024-03-02T06:43:29.301Z,60.31
2024-03-02T06:44:29.297Z,59.43
2024-03-02T06:45:29.308Z,60.16
2024-03-02T06:46:29.281Z,58.99
2024-03-02T06:47:29.298Z,58.83
2024-03-02T06:48:29.266Z,60.23
2024-03-02T06:49:29.249Z,59.68
2024-03-02T06:50:30.259Z,60.38
2024-03-02T06:51:29.318Z,58.81
2024-03-02T06:52:29.237Z,58.46
2024-03-02T06:53:29.226Z,59.79
2024-03-02T06:54:29.312Z,58.31
2024-03-02T06:55:29.276Z,57.27
2024-03-02T06:56:29.230Z,57.39
2024-03-02T06:57:29.230Z,60.43
2024-03-02T06:58:29.218Z,58.02
2024-03-02T06:59:29.186Z,55.87
2024-03-02T07:00:29.217Z,55.84
2024-03-02T07:01:29.314Z,58.62
2024-03-02T07:02:29.178Z,58.85
2024-03-02T07:03:29.201Z,58.48
2024-03-02T07:04:29.739Z,58.86
2024-03-02T07:05:29.157Z,58.41
2024-03-02T07:06:29.262Z,60.60
2024-03-02T07:07:29.222Z,60.87
2024-03-02T07:08:29.125Z,63.56
2024-03-02T07:09:30.240Z,59.49
2024-03-02T07:10:29.130Z,57.01
2024-03-02T07:11:29.155Z,59.37
2024-03-02T07:12:29.142Z,60.47
2024-03-02T07:13:29.100Z,60.01
2024-03-02T07:14:29.101Z,60.09
2024-03-02T07:15:29.129Z,60.21
2024-03-02T07:16:29.294Z,60.95
2024-03-02T07:17:29.123Z,58.80
2024-03-02T07:18:29.097Z,56.95
2024-03-02T07:19:29.078Z,56.60
2024-03-02T07:20:29.072Z,56.59
2024-03-02T07:21:29.089Z,57.28
2024-03-02T07:22:29.059Z,58.07
2024-03-02T07:23:29.064Z,57.09
2024-03-02T07:24:29.052Z,57.93
2024-03-02T07:27:30.062Z,58.44
2024-03-02T07:28:29.009Z,59.16
2024-03-02T07:29:29.171Z,57.94
2024-03-02T07:30:30.340Z,58.67
2024-03-02T07:31:29.004Z,60.20
2024-03-02T07:32:28.993Z,60.27
2024-03-02T07:33:29.025Z,58.54
2024-03-02T07:34:28.978Z,59.44
2024-03-02T07:35:29.067Z,58.69
2024-03-02T07:36:29.056Z,56.88
2024-03-02T07:37:28.947Z,57.34
2024-03-02T07:38:28.980Z,56.80
2024-03-02T07:39:28.962Z,57.38
2024-03-02T07:40:28.933Z,58.97
2024-03-02T07:41:28.943Z,58.84
2024-03-02T07:42:28.977Z,57.37
2024-03-02T07:43:28.939Z,55.89
2024-03-02T07:44:28.915Z,56.87
2024-03-02T07:45:28.979Z,56.83
2024-03-02T07:46:28.879Z,57.59
2024-03-02T07:47:28.921Z,58.09
2024-03-02T07:48:28.896Z,58.74
2024-03-02T07:49:28.875Z,57.56
2024-03-02T07:50:28.859Z,56.79
2024-03-02T07:51:28.861Z,59.74
2024-03-02T07:52:28.853Z,57.51
2024-03-02T07:53:28.827Z,57.08
2024-03-02T07:54:28.890Z,59.58
2024-03-02T07:55:28.867Z,57.60
2024-03-02T07:56:28.876Z,57.07
2024-03-02T07:57:28.822Z,57.56
2024-03-02T07:58:28.815Z,58.42
2024-03-02T07:59:28.810Z,58.89
2024-03-02T08:00:28.814Z,57.58
2024-03-02T08:01:29.036Z,57.83
2024-03-02T08:02:28.787Z,57.55
2024-03-02T08:03:28.808Z,56.17
2024-03-02T08:04:28.761Z,57.47
2024-03-02T08:05:28.763Z,59.99
2024-03-02T08:06:28.790Z,60.66
2024-03-02T08:07:28.736Z,58.59
2024-03-02T08:08:28.734Z,59.67
2024-03-02T08:09:28.741Z,58.66
2024-03-02T08:10:28.739Z,57.65
2024-03-02T08:11:28.855Z,58.63
2024-03-02T08:12:28.729Z,57.62
2024-03-02T08:13:28.691Z,59.68
2024-03-02T08:14:29.245Z,57.52
2024-03-02T08:15:28.732Z,57.62
2024-03-02T08:16:29.724Z,58.95
2024-03-02T08:17:28.689Z,58.13
2024-03-02T08:18:28.697Z,57.40
2024-03-02T08:19:28.653Z,57.47
2024-03-02T08:20:28.654Z,56.86
2024-03-02T08:21:28.704Z,56.39
2024-03-02T08:22:28.652Z,58.07
2024-03-02T08:23:28.631Z,58.04
2024-03-02T08:24:28.643Z,58.98
2024-03-02T08:25:28.621Z,59.68
2024-03-02T08:26:28.605Z,59.03
2024-03-02T08:27:28.653Z,56.52
2024-03-02T08:28:28.751Z,57.53
2024-03-02T08:29:28.579Z,56.88
2024-03-02T08:30:28.631Z,59.13
2024-03-02T08:31:28.572Z,59.27
2024-03-02T08:32:28.684Z,61.10
2024-03-02T08:33:28.605Z,59.90
2024-03-02T08:34:28.606Z,59.62
2024-03-02T08:35:28.568Z,58.50
2024-03-02T08:36:28.545Z,58.26
2024-03-02T08:37:28.566Z,58.20
2024-03-02T08:38:28.522Z,58.16
2024-03-02T08:39:28.551Z,58.52
2024-03-02T08:40:28.520Z,58.18
2024-03-02T08:41:28.522Z,58.89
2024-03-02T08:42:28.533Z,59.90
2024-03-02T08:43:28.499Z,58.15
2024-03-02T08:44:28.510Z,56.88
2024-03-02T08:45:28.534Z,57.20
2024-03-02T08:46:28.480Z,56.48
2024-03-02T08:47:28.509Z,56.96
2024-03-02T08:48:28.490Z,57.06
2024-03-02T08:49:28.443Z,58.66
2024-03-02T08:50:28.439Z,56.53
2024-03-02T08:51:28.518Z,56.87
2024-03-02T08:52:28.466Z,55.68
2024-03-02T08:53:28.440Z,57.33
2024-03-02T08:54:28.442Z,61.11
2024-03-02T08:55:28.406Z,57.44
2024-03-02T08:56:28.440Z,58.20
2024-03-02T08:57:28.432Z,58.32
2024-03-02T08:58:28.395Z,58.63
2024-03-02T08:59:28.391Z,56.68
2024-03-02T09:00:28.396Z,57.27
2024-03-02T09:01:28.492Z,57.44
2024-03-02T09:02:28.379Z,57.36
2024-03-02T09:03:28.428Z,58.03
2024-03-02T09:04:29.526Z,57.23
2024-03-02T09:05:28.357Z,58.91
2024-03-02T09:06:28.365Z,57.53
2024-03-02T09:07:28.332Z,57.60
2024-03-02T09:08:28.331Z,57.08
2024-03-02T09:09:28.340Z,56.59
2024-03-02T09:10:28.916Z,55.98
2024-03-02T09:11:29.361Z,57.54
2024-03-02T09:12:28.357Z,57.80
2024-03-02T09:13:28.308Z,57.13
2024-03-02T09:14:28.296Z,56.56
2024-03-02T09:15:28.348Z,56.73
2024-03-02T09:16:28.279Z,57.72
2024-03-02T09:17:28.278Z,57.50
2024-03-02T09:18:28.334Z,55.43
2024-03-02T09:19:28.255Z,56.70
2024-03-02T09:20:28.244Z,58.27
2024-03-02T09:21:28.251Z,60.36
2024-03-02T09:22:28.281Z,59.27
2024-03-02T09:23:28.248Z,57.94
2024-03-02T09:24:28.224Z,57.43
2024-03-02T09:25:28.209Z,57.95
2024-03-02T09:26:28.200Z,56.91
2024-03-02T09:27:28.228Z,56.25
2024-03-02T09:28:28.216Z,57.46
2024-03-02T09:29:28.180Z,57.53
2024-03-02T09:30:28.196Z,57.30
2024-03-02T09:31:28.181Z,58.12
2024-03-02T09:32:28.189Z,58.98
2024-03-02T09:33:28.322Z,57.08
2024-03-02T09:34:28.174Z,55.72
2024-03-02T09:35:28.220Z,58.09
2024-03-02T09:36:28.143Z,59.87
2024-03-02T09:37:28.147Z,59.98
2024-03-02T09:38:28.157Z,59.05
2024-03-02T09:39:28.157Z,61.29
2024-03-02T09:40:28.163Z,60.06
2024-03-02T09:41:28.114Z,56.85
2024-03-02T09:42:28.134Z,56.79
2024-03-02T09:43:28.088Z,56.62
2024-03-02T09:44:28.089Z,57.38
2024-03-02T09:45:28.164Z,57.32
2024-03-02T09:46:28.075Z,57.03
2024-03-02T09:47:28.127Z,57.09
2024-03-02T09:48:28.062Z,57.36
2024-03-02T09:49:28.069Z,56.36
2024-03-02T09:50:28.044Z,56.54
2024-03-02T09:51:28.076Z,56.18
2024-03-02T09:52:28.019Z,55.86
2024-03-02T09:53:28.045Z,55.65
2024-03-02T09:54:28.086Z,55.44
2024-03-02T09:55:28.036Z,56.09
2024-03-02T09:56:28.002Z,55.44
2024-03-02T09:57:27.998Z,56.06
2024-03-02T09:58:27.998Z,56.09
2024-03-02T09:59:27.981Z,56.00
2024-03-02T10:00:27.990Z,55.65
2024-03-02T10:01:28.019Z,53.89
2024-03-02T10:02:27.969Z,55.33
2024-03-02T10:03:27.979Z,55.36
2024-03-02T10:04:27.989Z,54.23
2024-03-02T10:05:27.957Z,55.00
2024-03-02T10:06:27.959Z,53.67
2024-03-02T10:07:27.930Z,54.29
2024-03-02T10:08:27.917Z,53.17
2024-03-02T10:09:27.920Z,54.68
2024-03-02T10:10:27.919Z,52.10
2024-03-02T10:11:27.906Z,52.52
2024-03-02T10:12:27.923Z,52.85
2024-03-02T10:13:27.881Z,51.77
2024-03-02T10:14:27.878Z,54.47
2024-03-02T10:15:27.961Z,53.77
2024-03-02T10:16:27.858Z,53.61
2024-03-02T10:17:27.871Z,55.73
2024-03-02T10:18:27.907Z,55.06
2024-03-02T10:19:27.844Z,54.90
2024-03-02T10:20:27.846Z,53.96
2024-03-02T10:21:27.836Z,55.86
2024-03-02T10:22:27.823Z,55.39
2024-03-02T10:23:28.736Z,55.61
2024-03-02T10:24:27.848Z,54.98
2024-03-02T10:25:37.337Z,54.74
2024-03-02T10:26:29.815Z,55.90
2024-03-02T10:27:27.824Z,56.19
2024-03-02T10:28:27.780Z,56.61
2024-03-02T10:29:27.782Z,56.95
2024-03-02T10:30:27.786Z,56.18
2024-03-02T10:31:27.773Z,56.88
2024-03-02T10:32:27.779Z,57.33
2024-03-02T10:33:27.759Z,56.44
2024-03-02T10:34:27.737Z,56.84
2024-03-02T10:35:27.729Z,56.95
2024-03-02T10:36:27.815Z,57.86
2024-03-02T10:37:27.734Z,58.06
2024-03-02T10:38:27.724Z,58.30
2024-03-02T10:39:27.755Z,57.71
2024-03-02T10:40:27.711Z,56.12
2024-03-02T10:41:27.689Z,54.57
2024-03-02T10:42:27.721Z,55.24
2024-03-02T10:43:27.690Z,54.30
2024-03-02T10:44:27.689Z,53.76
2024-03-02T10:45:27.686Z,55.36
2024-03-02T10:46:27.656Z,54.95
2024-03-02T10:47:27.679Z,52.83
2024-03-02T10:48:27.663Z,53.76
2024-03-02T10:49:27.658Z,53.38
2024-03-02T10:50:27.668Z,53.48
2024-03-02T10:51:27.636Z,53.03
2024-03-02T10:52:27.617Z,52.88
2024-03-02T10:53:27.623Z,53.59
2024-03-02T10:54:28.053Z,52.66
2024-03-02T10:55:27.987Z,54.66
2024-03-02T10:56:27.624Z,54.09
2024-03-02T10:57:27.743Z,53.33
2024-03-02T10:58:27.794Z,53.36
2024-03-02T10:59:27.700Z,52.41
2024-03-02T11:00:27.632Z,54.61
2024-03-02T11:01:27.630Z,55.60
2024-03-02T11:02:27.549Z,55.07
2024-03-02T11:03:27.566Z,54.51
2024-03-02T11:04:27.541Z,53.54
2024-03-02T11:05:27.539Z,53.47
2024-03-02T11:06:27.537Z,54.39
2024-03-02T11:07:27.537Z,52.29
2024-03-02T11:08:27.516Z,53.22
2024-03-02T11:09:27.797Z,50.81
2024-03-02T11:10:27.510Z,51.87
2024-03-02T11:11:27.557Z,50.97
2024-03-02T11:12:27.540Z,52.70
2024-03-02T11:13:27.498Z,52.37
2024-03-02T11:14:27.487Z,52.31
2024-03-02T11:15:27.514Z,52.51
2024-03-02T11:16:27.494Z,52.28
2024-03-02T11:17:27.458Z,51.58
2024-03-02T11:18:27.491Z,52.98
2024-03-02T11:19:27.567Z,51.33
2024-03-02T11:20:27.477Z,53.46
2024-03-02T11:21:27.480Z,53.46
2024-03-02T11:22:27.429Z,54.40
2024-03-02T11:23:27.418Z,51.81
2024-03-02T11:24:27.533Z,52.98
2024-03-02T11:25:27.433Z,54.83
2024-03-02T11:26:27.408Z,54.85
2024-03-02T11:27:27.585Z,54.25
2024-03-02T11:28:27.394Z,53.95
2024-03-02T11:29:27.381Z,54.98
2024-03-02T11:30:27.391Z,52.86
2024-03-02T11:31:27.522Z,54.28
2024-03-02T11:32:27.390Z,54.88
2024-03-02T11:33:27.463Z,54.08
2024-03-02T11:34:27.353Z,54.94
2024-03-02T11:35:27.388Z,54.51
2024-03-02T11:36:27.397Z,55.72
2024-03-02T11:37:27.330Z,56.17
2024-03-02T11:38:27.389Z,56.31
2024-03-02T11:39:27.360Z,54.77
2024-03-02T11:40:27.324Z,54.54
2024-03-02T11:41:27.326Z,55.24
2024-03-02T11:42:27.307Z,54.35
2024-03-02T11:43:27.296Z,55.80
2024-03-02T11:44:27.286Z,54.57
2024-03-02T11:45:27.284Z,53.52
2024-03-02T11:46:27.267Z,54.91
2024-03-02T11:47:27.294Z,56.11
2024-03-02T11:48:27.285Z,56.19
2024-03-02T11:49:27.252Z,56.73
2024-03-02T11:50:27.278Z,56.10
2024-03-02T11:51:27.255Z,55.70
2024-03-02T11:52:27.221Z,53.93
2024-03-02T11:53:27.242Z,55.90
2024-03-02T11:54:27.243Z,55.81
2024-03-02T11:55:27.200Z,56.38
2024-03-02T11:56:27.201Z,55.98
2024-03-02T11:57:27.196Z,55.91
2024-03-02T11:58:27.203Z,54.54
2024-03-02T11:59:27.189Z,54.46
2024-03-02T12:00:27.252Z,53.37
2024-03-02T12:01:27.891Z,54.02
2024-03-02T12:02:27.178Z,55.50
2024-03-02T12:03:27.632Z,54.90
2024-03-02T12:04:27.167Z,54.53
2024-03-02T12:05:27.156Z,54.46
2024-03-02T12:06:27.165Z,54.16
2024-03-02T12:07:27.127Z,55.15
2024-03-02T12:08:27.140Z,54.56
2024-03-02T12:09:27.141Z,56.15
2024-03-02T12:10:27.110Z,54.86
2024-03-02T12:11:27.128Z,55.66
2024-03-02T12:12:27.139Z,55.64
2024-03-02T12:13:27.086Z,53.78
2024-03-02T12:14:27.086Z,54.01
2024-03-02T12:15:27.098Z,55.35
2024-03-02T12:16:27.125Z,56.17
2024-03-02T12:17:27.060Z,55.29
2024-03-02T12:18:27.593Z,57.05
2024-03-02T12:19:27.044Z,56.53
2024-03-02T12:20:27.035Z,56.74
2024-03-02T12:21:27.039Z,57.04
2024-03-02T12:22:27.020Z,55.23
2024-03-02T12:23:27.088Z,55.43
2024-03-02T12:24:27.013Z,57.05
2024-03-02T12:25:26.992Z,56.38
2024-03-02T12:26:26.992Z,57.35
2024-03-02T12:27:27.012Z,56.48
2024-03-02T12:28:26.996Z,55.92
2024-03-02T12:29:26.967Z,58.08
2024-03-02T12:30:27.017Z,57.09
2024-03-02T12:31:26.951Z,57.34
2024-03-02T12:32:26.945Z,56.29
2024-03-02T12:33:27.013Z,57.34
2024-03-02T12:34:27.003Z,55.55
2024-03-02T12:35:27.009Z,57.21
2024-03-02T12:36:26.977Z,56.14
2024-03-02T12:37:26.941Z,56.11
2024-03-02T12:38:26.973Z,56.14
2024-03-02T12:39:26.922Z,56.39
2024-03-02T12:40:26.919Z,55.94
2024-03-02T12:41:28.875Z,54.01
2024-03-02T12:42:26.908Z,54.84
2024-03-02T12:43:26.891Z,53.51
2024-03-02T12:44:26.872Z,54.35
2024-03-02T12:45:27.023Z,55.23
2024-03-02T12:46:26.878Z,54.47
2024-03-02T12:47:26.882Z,54.59
2024-03-02T12:48:26.861Z,55.78
2024-03-02T12:49:26.825Z,55.42
2024-03-02T12:50:26.829Z,56.26
2024-03-02T12:51:26.896Z,55.47
2024-03-02T12:52:26.811Z,55.96
2024-03-02T12:53:26.809Z,56.76
2024-03-02T12:54:26.802Z,55.41